Time;durP1;ratioP1;P1;durP2;ratioP2;P2;SDS_P1;SDS_P2;PMS_P1;PMS_P2;Temp;Humidity;BMP_temperature;BMP_pressure;BME280_temperature;BME280_humidity;BME280_pressure;Samples;Min_cycle;Max_cycle;Signal;HPM_P1;HPM_P2
2022/06/24 00:00:44;;;;;;;6.60;3.20;;;22.20;99.90;;;;;;5026129;28;20165;-77
2022/06/24 00:03:19;;;;;;;6.63;4.28;;;22.00;99.90;;;;;;5015314;28;20628;-78
2022/06/24 00:05:48;;;;;;;4.40;3.40;;;22.00;99.90;;;;;;5019387;28;20251;-78
2022/06/24 00:08:15;;;;;;;7.97;3.45;;;22.00;99.90;;;;;;5017890;28;20193;-78
2022/06/24 00:10:43;;;;;;;6.68;3.58;;;22.10;99.90;;;;;;5013162;28;20671;-78
2022/06/24 00:13:08;;;;;;;5.32;3.30;;;22.10;99.90;;;;;;5013104;28;20208;-78
2022/06/24 00:15:36;;;;;;;6.07;3.40;;;22.10;99.90;;;;;;5013169;28;20251;-79
2022/06/24 00:18:15;;;;;;;4.28;3.80;;;22.10;99.90;;;;;;5013365;28;20230;-78
2022/06/24 00:20:46;;;;;;;8.30;3.65;;;22.10;99.90;;;;;;4995359;28;20500;-79
2022/06/24 00:23:14;;;;;;;6.78;3.58;;;22.10;99.90;;;;;;5015492;28;20178;-79
2022/06/24 00:25:41;;;;;;;4.35;3.38;;;22.00;99.90;;;;;;5019279;28;20172;-79
2022/06/24 00:28:11;;;;;;;3.85;3.33;;;21.80;99.90;;;;;;5031705;28;20247;-78
2022/06/24 00:30:41;;;;;;;7.28;3.17;;;21.80;99.90;;;;;;5037102;28;20228;-77
2022/06/24 00:33:16;;;;;;;4.72;2.97;;;21.90;99.90;;;;;;5026951;28;20734;-80
2022/06/24 00:35:45;;;;;;;5.93;2.50;;;21.80;99.90;;;;;;5017387;28;20165;-87
2022/06/24 00:38:29;;;;;;;5.13;3.25;;;21.90;99.90;;;;;;5016530;28;20188;-79
2022/06/24 00:41:03;;;;;;;5.70;4.88;;;22.00;99.90;;;;;;5016209;28;20587;-78
2022/06/24 00:43:38;;;;;;;10.20;3.85;;;22.30;99.90;;;;;;5015144;28;20164;-79
2022/06/24 00:46:14;;;;;;;5.32;4.35;;;22.30;99.90;;;;;;5015772;28;20175;-79
2022/06/24 00:48:45;;;;;;;6.05;4.15;;;22.10;99.90;;;;;;5015948;28;20181;-78
2022/06/24 00:51:11;;;;;;;7.55;3.88;;;22.10;99.90;;;;;;5015801;28;20541;-79
2022/06/24 00:53:40;;;;;;;4.85;4.40;;;21.90;99.90;;;;;;5015609;28;20208;-79
2022/06/24 00:56:08;;;;;;;10.10;3.55;;;22.00;99.90;;;;;;4998243;28;20176;-79
2022/06/24 00:58:34;;;;;;;4.72;4.20;;;21.90;99.90;;;;;;5015441;28;20185;-78
2022/06/24 01:01:01;;;;;;;10.15;5.93;;;21.50;99.90;;;;;;5015687;28;20175;-80
2022/06/24 01:03:42;;;;;;;5.88;5.28;;;21.40;99.90;;;;;;5014292;28;20188;-78
2022/06/24 01:06:09;;;;;;;11.73;8.02;;;21.40;99.90;;;;;;5015188;28;20177;-81
2022/06/24 01:08:35;;;;;;;10.07;9.13;;;21.20;99.90;;;;;;5015646;28;20180;-83
2022/06/24 01:11:01;;;;;;;15.00;9.75;;;21.10;99.90;;;;;;5015676;28;20164;-82
2022/06/24 01:13:27;;;;;;;12.40;10.68;;;21.30;99.90;;;;;;5015024;28;20208;-79
2022/06/24 01:15:53;;;;;;;12.27;10.90;;;21.20;99.90;;;;;;5015547;28;20176;-81
2022/06/24 01:18:19;;;;;;;14.48;11.35;;;21.00;99.90;;;;;;5015283;28;20204;-78
2022/06/24 01:20:44;;;;;;;14.38;10.27;;;21.00;99.90;;;;;;5015157;28;20169;-81
2022/06/24 01:23:10;;;;;;;11.52;10.38;;;21.10;99.90;;;;;;5015157;28;20219;-79
2022/06/24 01:25:36;;;;;;;12.32;9.68;;;21.00;99.90;;;;;;5014896;28;20255;-78
2022/06/24 01:28:01;;;;;;;18.40;11.20;;;21.00;99.90;;;;;;5014410;28;20196;-78
2022/06/24 01:30:28;;;;;;;12.48;11.15;;;21.10;99.90;;;;;;5014990;28;20220;-85
2022/06/24 01:32:54;;;;;;;20.25;12.50;;;21.30;99.90;;;;;;5014932;28;20669;-79
2022/06/24 01:35:20;;;;;;;16.52;12.77;;;21.60;99.90;;;;;;5014371;28;20617;-78
2022/06/24 01:37:46;;;;;;;12.98;11.50;;;21.80;99.90;;;;;;5014505;28;20234;-80
2022/06/24 01:40:12;;;;;;;14.40;12.35;;;21.80;99.90;;;;;;5014955;28;20169;-78
2022/06/24 01:42:38;;;;;;;14.80;13.00;;;21.90;99.90;;;;;;5015039;28;20636;-78
2022/06/24 01:45:04;;;;;;;13.40;11.98;;;21.80;99.90;;;;;;5015872;28;20180;-80
2022/06/24 01:47:30;;;;;;;14.63;12.73;;;21.50;99.90;;;;;;5015660;28;20234;-78
2022/06/24 01:49:55;;;;;;;15.40;12.30;;;21.60;99.90;;;;;;5015853;28;20251;-78
2022/06/24 01:52:21;;;;;;;16.40;12.48;;;21.40;99.90;;;;;;5019325;28;20212;-79
2022/06/24 01:54:47;;;;;;;14.40;11.77;;;21.40;99.90;;;;;;5019184;28;20520;-79
2022/06/24 01:57:12;;;;;;;15.82;12.10;;;21.30;99.90;;;;;;5022542;28;20169;-82
2022/06/24 01:59:38;;;;;;;15.05;12.80;;;21.30;99.90;;;;;;5024907;28;20165;-82
2022/06/24 02:02:04;;;;;;;15.38;12.45;;;21.30;99.90;;;;;;5026836;28;20177;-85
2022/06/24 02:04:29;;;;;;;13.70;11.85;;;21.40;99.90;;;;;;5028494;28;20180;-76
2022/06/24 02:06:55;;;;;;;15.05;11.60;;;21.30;99.90;;;;;;5034672;28;20189;-79
2022/06/24 02:09:21;;;;;;;16.98;12.45;;;21.20;99.90;;;;;;5035402;28;20188;-76
2022/06/24 02:14:31;;;;;;;14.52;12.13;;;21.10;99.90;;;;;;5028810;28;20176;-87
2022/06/24 02:16:57;;;;;;;15.13;12.60;;;21.20;99.90;;;;;;5028423;28;20190;-80
2022/06/24 02:19:23;;;;;;;17.70;13.07;;;21.20;99.90;;;;;;5029651;28;20180;-83
2022/06/24 02:21:48;;;;;;;26.42;12.90;;;21.40;99.90;;;;;;5020141;28;20172;-83
2022/06/24 02:24:15;;;;;;;14.45;11.55;;;21.50;99.90;;;;;;5032641;28;20168;-82
2022/06/24 02:26:43;;;;;;;13.35;11.77;;;21.70;99.90;;;;;;5018527;28;20165;-80
2022/06/24 02:29:09;;;;;;;15.25;12.25;;;21.60;99.90;;;;;;5014776;28;20197;-86
2022/06/24 02:31:45;;;;;;;17.85;12.05;;;21.60;99.90;;;;;;5018801;28;20236;-79
2022/06/24 02:34:11;;;;;;;14.05;12.27;;;21.60;99.90;;;;;;5020239;28;20168;-87
2022/06/24 02:36:36;;;;;;;18.50;12.50;;;21.80;99.90;;;;;;5026299;28;20165;-85
2022/06/24 02:39:04;;;;;;;12.88;11.57;;;21.70;99.90;;;;;;5016170;28;20212;-87
2022/06/24 02:41:31;;;;;;;12.27;10.38;;;21.60;99.90;;;;;;5021602;28;20215;-86
2022/06/24 02:43:56;;;;;;;12.48;11.02;;;21.30;99.90;;;;;;5030088;28;20168;-87
2022/06/24 02:46:22;;;;;;;11.32;8.77;;;21.30;99.90;;;;;;5021266;28;20195;-88
2022/06/24 02:48:47;;;;;;;13.43;9.27;;;21.50;99.90;;;;;;5017562;28;20195;-87
2022/06/24 02:51:15;;;;;;;9.32;8.52;;;21.60;99.90;;;;;;5014891;28;20172;-87
2022/06/24 02:53:42;;;;;;;10.90;8.88;;;21.50;99.90;;;;;;5002987;28;20231;-83
2022/06/24 02:56:10;;;;;;;10.20;9.18;;;21.50;99.90;;;;;;5019344;28;20165;-87
2022/06/24 02:58:37;;;;;;;14.77;9.88;;;21.30;99.90;;;;;;5033479;28;20243;-80
2022/06/24 03:01:04;;;;;;;14.23;10.77;;;21.40;99.90;;;;;;5038051;28;20155;-81
2022/06/24 03:03:30;;;;;;;17.58;11.18;;;21.50;99.90;;;;;;5038064;28;20192;-81
2022/06/24 03:05:56;;;;;;;14.52;10.85;;;21.50;99.90;;;;;;5017932;28;20183;-86
2022/06/24 03:08:23;;;;;;;11.55;10.40;;;21.40;99.90;;;;;;5018971;28;20215;-87
2022/06/24 03:10:52;;;;;;;15.02;11.77;;;21.50;99.90;;;;;;5017866;28;20189;-87
2022/06/24 03:13:22;;;;;;;13.38;10.15;;;21.50;99.90;;;;;;5017079;28;20204;-87
2022/06/24 03:15:48;;;;;;;14.38;11.95;;;21.50;99.90;;;;;;5018181;28;20156;-86
2022/06/24 03:18:15;;;;;;;11.88;10.43;;;21.50;99.90;;;;;;5017135;28;20197;-86
2022/06/24 03:20:40;;;;;;;11.07;9.98;;;21.60;99.90;;;;;;5022015;28;20223;-87
2022/06/24 03:23:06;;;;;;;13.90;10.48;;;21.60;99.90;;;;;;5017600;28;20173;-88
2022/06/24 03:25:33;;;;;;;19.52;11.25;;;21.60;99.90;;;;;;5016978;28;20636;-85
2022/06/24 03:28:04;;;;;;;15.18;10.85;;;21.50;99.90;;;;;;5017471;28;20196;-85
2022/06/24 03:30:32;;;;;;;28.55;12.13;;;21.50;99.90;;;;;;5016960;28;20613;-85
2022/06/24 03:32:57;;;;;;;11.15;9.98;;;21.40;99.90;;;;;;5017589;28;20614;-82
2022/06/24 03:35:24;;;;;;;14.57;9.63;;;21.30;99.90;;;;;;5017592;28;20195;-88
2022/06/24 03:37:51;;;;;;;13.07;9.75;;;21.30;99.90;;;;;;5017831;28;20200;-81
2022/06/24 03:40:17;;;;;;;16.50;10.77;;;21.20;99.90;;;;;;5019890;28;20195;-80
2022/06/24 03:42:51;;;;;;;12.57;10.45;;;21.10;99.90;;;;;;5019679;28;20161;-81
2022/06/24 03:45:17;;;;;;;13.45;10.15;;;21.10;99.90;;;;;;5015100;28;20264;-83
2022/06/24 03:47:43;;;;;;;12.52;11.40;;;21.10;99.90;;;;;;5015351;28;20216;-80
2022/06/24 03:50:09;;;;;;;18.00;12.43;;;21.10;99.90;;;;;;5015773;28;20548;-81
2022/06/24 03:52:34;;;;;;;13.23;11.45;;;21.10;99.90;;;;;;5014178;28;20208;-81
2022/06/24 03:55:00;;;;;;;20.33;11.60;;;20.90;99.90;;;;;;5015026;28;20172;-84
2022/06/24 03:57:26;;;;;;;14.80;12.95;;;20.80;99.90;;;;;;5016512;28;20192;-78
2022/06/24 03:59:51;;;;;;;12.82;11.50;;;20.70;99.90;;;;;;5017931;28;20164;-86
2022/06/24 04:02:18;;;;;;;19.95;12.02;;;20.70;99.90;;;;;;5018567;28;20259;-87
2022/06/24 04:04:44;;;;;;;13.85;11.13;;;20.60;99.90;;;;;;5017320;28;20176;-81
2022/06/24 04:07:09;;;;;;;14.82;10.45;;;20.70;99.90;;;;;;5016560;28;20169;-79
2022/06/24 04:09:35;;;;;;;17.58;11.35;;;20.80;99.90;;;;;;5016966;28;20247;-78
2022/06/24 04:12:01;;;;;;;19.23;10.77;;;21.00;99.90;;;;;;5016664;28;20201;-80
2022/06/24 04:17:11;;;;;;;17.88;12.40;;;21.30;99.90;;;;;;5016312;28;20211;-78
2022/06/24 04:19:36;;;;;;;16.00;11.93;;;21.30;99.90;;;;;;5016480;28;20674;-78
2022/06/24 04:22:03;;;;;;;13.45;12.13;;;21.30;99.90;;;;;;5016185;28;20179;-80
2022/06/24 04:24:29;;;;;;;19.80;14.45;;;21.30;99.90;;;;;;5016563;28;20231;-79
2022/06/24 04:26:54;;;;;;;19.70;11.93;;;21.30;99.90;;;;;;5016531;28;20176;-85
2022/06/24 04:29:20;;;;;;;15.32;9.82;;;21.10;99.90;;;;;;5015981;28;20187;-78
2022/06/24 04:31:46;;;;;;;14.48;8.50;;;20.80;99.90;;;;;;5016431;28;20279;-78
2022/06/24 04:34:11;;;;;;;12.85;9.43;;;20.70;99.90;;;;;;5016311;28;20645;-79
2022/06/24 04:36:37;;;;;;;8.75;7.90;;;20.70;99.90;;;;;;5015837;28;20636;-78
2022/06/24 04:39:03;;;;;;;8.30;7.47;;;20.60;99.90;;;;;;5015593;28;20572;-79
2022/06/24 04:41:29;;;;;;;8.88;7.93;;;20.80;99.90;;;;;;5016362;28;20176;-80
2022/06/24 04:43:54;;;;;;;7.78;7.07;;;20.80;99.90;;;;;;5015917;28;20232;-78
2022/06/24 04:46:21;;;;;;;8.40;6.32;;;20.80;99.90;;;;;;5015623;28;20177;-85
2022/06/24 04:48:46;;;;;;;10.73;7.22;;;20.80;99.90;;;;;;5016468;28;20661;-81
2022/06/24 04:51:12;;;;;;;9.63;6.45;;;20.80;99.90;;;;;;5015175;28;20183;-81
2022/06/24 04:53:38;;;;;;;8.35;7.07;;;20.60;99.90;;;;;;4998200;28;20200;-78
2022/06/24 04:56:04;;;;;;;10.50;7.63;;;20.40;99.90;;;;;;5016275;28;20165;-79
2022/06/24 04:58:29;;;;;;;8.18;7.28;;;20.70;99.90;;;;;;5015831;28;20278;-79
2022/06/24 05:00:55;;;;;;;7.00;6.40;;;20.50;99.90;;;;;;5014405;28;20169;-78
2022/06/24 05:03:20;;;;;;;9.88;6.57;;;20.70;99.90;;;;;;5015697;28;20176;-84
2022/06/24 05:05:46;;;;;;;7.20;6.50;;;20.80;99.90;;;;;;5015283;28;20688;-81
2022/06/24 05:08:12;;;;;;;8.65;6.30;;;20.70;99.90;;;;;;5014560;28;20192;-79
2022/06/24 05:10:39;;;;;;;7.07;6.47;;;20.70;99.90;;;;;;5014544;28;20168;-78
2022/06/24 05:13:05;;;;;;;10.38;6.05;;;20.70;99.90;;;;;;5014596;28;20239;-82
2022/06/24 05:15:30;;;;;;;5.80;5.13;;;20.70;99.90;;;;;;5014943;28;20161;-78
2022/06/24 05:17:56;;;;;;;10.10;5.18;;;20.60;99.90;;;;;;5014500;28;20181;-80
2022/06/24 05:20:21;;;;;;;11.63;4.60;;;20.60;99.90;;;;;;5015024;28;20532;-78
2022/06/24 05:22:47;;;;;;;10.52;4.57;;;20.70;99.90;;;;;;5014697;28;20160;-78
2022/06/24 05:25:12;;;;;;;5.93;4.22;;;20.70;99.90;;;;;;5015402;28;20584;-78
2022/06/24 05:27:38;;;;;;;5.00;4.38;;;20.70;99.90;;;;;;5024662;28;20319;-78
2022/06/24 05:30:04;;;;;;;7.38;4.85;;;20.80;99.90;;;;;;5031778;28;20212;-80
2022/06/24 05:32:30;;;;;;;7.35;4.43;;;20.90;99.90;;;;;;5037694;28;20216;-83
2022/06/24 05:34:56;;;;;;;6.22;4.30;;;21.00;99.90;;;;;;5016089;28;20160;-85
2022/06/24 05:37:22;;;;;;;5.28;3.85;;;20.80;99.90;;;;;;5015588;28;20192;-78
2022/06/24 05:39:47;;;;;;;4.60;3.88;;;20.80;99.90;;;;;;5014895;28;20169;-78
2022/06/24 05:42:13;;;;;;;12.85;4.20;;;20.70;99.90;;;;;;5014820;28;20180;-78
2022/06/24 05:44:38;;;;;;;6.97;3.60;;;20.60;99.90;;;;;;5015282;28;20164;-82
2022/06/24 05:47:04;;;;;;;10.27;3.85;;;20.70;99.90;;;;;;5014881;28;20179;-78
2022/06/24 05:49:30;;;;;;;11.52;4.50;;;20.80;99.90;;;;;;5013077;28;20161;-80
2022/06/24 05:51:56;;;;;;;4.70;4.22;;;20.90;99.90;;;;;;5015631;28;20193;-78
2022/06/24 05:57:06;;;;;;;5.35;4.35;;;21.10;99.90;;;;;;5014319;28;20241;-79
2022/06/24 05:59:37;;;;;;;7.85;4.68;;;21.40;99.90;;;;;;5014123;28;20184;-80
2022/06/24 06:02:04;;;;;;;5.20;3.83;;;21.30;99.90;;;;;;5013768;28;20226;-80
2022/06/24 06:04:29;;;;;;;3.72;3.42;;;21.50;99.90;;;;;;5013855;28;20811;-81
2022/06/24 06:06:55;;;;;;;7.60;3.20;;;21.30;99.90;;;;;;5013858;28;20617;-80
2022/06/24 06:09:21;;;;;;;9.60;3.30;;;21.30;99.90;;;;;;5014155;28;20278;-79
2022/06/24 06:11:46;;;;;;;6.13;3.70;;;21.60;99.90;;;;;;5013994;28;20193;-80
2022/06/24 06:14:12;;;;;;;5.28;3.92;;;21.70;99.90;;;;;;5013626;28;20180;-79
2022/06/24 06:16:38;;;;;;;3.78;3.38;;;21.80;99.90;;;;;;5013114;28;20516;-79
2022/06/24 06:19:03;;;;;;;6.72;3.42;;;22.20;99.90;;;;;;5013732;28;20195;-79
2022/06/24 06:21:29;;;;;;;5.28;3.58;;;22.20;99.90;;;;;;5013531;28;20164;-80
2022/06/24 06:23:54;;;;;;;7.60;3.13;;;22.20;99.90;;;;;;5013867;28;20208;-80
2022/06/24 06:26:20;;;;;;;7.22;4.00;;;22.00;99.90;;;;;;5013954;28;20274;-80
2022/06/24 06:28:46;;;;;;;8.15;4.45;;;22.20;99.90;;;;;;5016194;28;20204;-80
2022/06/24 06:31:11;;;;;;;6.20;3.28;;;22.30;99.90;;;;;;4997853;28;20256;-80
2022/06/24 06:33:37;;;;;;;7.05;3.95;;;22.20;99.90;;;;;;5013885;28;20296;-81
2022/06/24 06:36:11;;;;;;;8.55;3.38;;;22.30;99.90;;;;;;4996515;28;20196;-80
2022/06/24 06:38:39;;;;;;;3.72;3.00;;;22.30;99.90;;;;;;5013728;28;20192;-79
2022/06/24 06:41:05;;;;;;;13.88;3.65;;;22.30;99.90;;;;;;5013605;28;20192;-80
2022/06/24 06:43:31;;;;;;;10.60;3.58;;;22.20;99.90;;;;;;5013441;28;20628;-82
2022/06/24 06:45:56;;;;;;;3.35;3.05;;;22.20;99.90;;;;;;5013901;28;20173;-81
2022/06/24 06:48:23;;;;;;;3.40;3.10;;;22.20;99.90;;;;;;5013423;28;20179;-80
2022/06/24 06:50:54;;;;;;;3.65;3.22;;;22.20;99.90;;;;;;4995996;28;20625;-82
2022/06/24 06:53:20;;;;;;;3.97;2.67;;;22.30;99.90;;;;;;4995829;28;20267;-82
2022/06/24 06:55:46;;;;;;;7.95;3.20;;;22.00;99.90;;;;;;5013325;28;20636;-82
2022/06/24 06:58:11;;;;;;;6.70;3.65;;;22.00;99.90;;;;;;5013307;28;20184;-80
2022/06/24 07:00:37;;;;;;;3.88;3.42;;;22.30;99.90;;;;;;5013448;28;20250;-78
2022/06/24 07:03:02;;;;;;;4.45;3.13;;;22.50;99.90;;;;;;5013342;28;20188;-81
2022/06/24 07:05:28;;;;;;;16.50;3.10;;;22.80;99.90;;;;;;5013744;28;20526;-79
2022/06/24 07:07:54;;;;;;;4.90;3.67;;;23.90;99.90;;;;;;5013388;28;20203;-80
2022/06/24 07:10:19;;;;;;;6.38;2.70;;;24.90;99.90;;;;;;5014074;28;20160;-87
2022/06/24 07:12:45;;;;;;;6.28;3.47;;;25.50;99.90;;;;;;5014015;28;20291;-88
2022/06/24 07:15:14;;;;;;;7.88;3.47;;;25.70;99.90;;;;;;5013835;28;20160;-82
2022/06/24 07:17:40;;;;;;;10.70;2.85;;;25.90;99.90;;;;;;5011717;28;20735;-80
2022/06/24 07:20:06;;;;;;;5.18;3.22;;;25.70;99.90;;;;;;5013476;28;20173;-81
2022/06/24 07:22:32;;;;;;;3.95;3.38;;;24.90;99.90;;;;;;5015791;28;20157;-88
2022/06/24 07:24:57;;;;;;;6.93;2.83;;;24.80;99.90;;;;;;5014213;28;20226;-84
2022/06/24 07:27:23;;;;;;;3.40;2.97;;;24.30;99.90;;;;;;5013516;28;20552;-85
2022/06/24 07:29:49;;;;;;;14.50;3.10;;;24.30;99.90;;;;;;5013776;28;20219;-91
2022/06/24 07:32:16;;;;;;;8.48;3.13;;;24.50;99.90;;;;;;5000311;28;20196;-81
2022/06/24 07:34:42;;;;;;;9.68;3.03;;;24.50;99.90;;;;;;5002236;28;20169;-82
2022/06/24 07:37:08;;;;;;;3.75;3.28;;;24.10;99.90;;;;;;4999129;28;20650;-86
2022/06/24 07:39:33;;;;;;;10.80;3.15;;;24.00;99.90;;;;;;5017982;28;20172;-80
2022/06/24 07:41:59;;;;;;;7.88;3.13;;;24.00;99.90;;;;;;5017874;28;20556;-86
2022/06/24 07:44:25;;;;;;;6.57;3.25;;;24.10;99.90;;;;;;5017948;28;20168;-80
2022/06/24 07:46:51;;;;;;;3.53;3.05;;;24.20;99.90;;;;;;5017144;28;20319;-80
2022/06/24 07:49:17;;;;;;;4.53;3.33;;;24.40;99.90;;;;;;4999739;28;20615;-87
2022/06/24 07:51:43;;;;;;;3.60;3.30;;;23.90;99.90;;;;;;4999777;28;20215;-86
2022/06/24 07:54:09;;;;;;;5.00;3.70;;;23.60;99.90;;;;;;5017902;28;20184;-81
2022/06/24 07:59:20;;;;;;;1.60;1.50;;;23.30;99.90;;;;;;5029672;28;20218;-80
2022/06/24 08:01:46;;;;;;;1.67;0.73;;;22.70;99.90;;;;;;5034219;28;20180;-80
2022/06/24 08:04:11;;;;;;;0.95;0.93;;;22.20;99.90;;;;;;5038731;28;20180;-80
2022/06/24 08:06:39;;;;;;;4.45;1.15;;;21.70;99.90;;;;;;5019730;28;20231;-78
2022/06/24 08:09:05;;;;;;;1.20;1.10;;;21.40;99.90;;;;;;5016195;28;20286;-79
2022/06/24 08:11:32;;;;;;;1.77;1.63;;;21.20;99.90;;;;;;5016611;28;20167;-79
2022/06/24 08:13:58;;;;;;;5.60;1.55;;;21.20;99.90;;;;;;5016280;28;20267;-80
2022/06/24 08:16:24;;;;;;;3.78;1.60;;;21.10;99.90;;;;;;5015264;28;20235;-79
2022/06/24 08:18:51;;;;;;;1.83;1.60;;;20.60;99.90;;;;;;5015506;28;20220;-80
2022/06/24 08:21:17;;;;;;;3.65;1.25;;;20.70;99.90;;;;;;4998153;28;20173;-79
2022/06/24 08:23:43;;;;;;;4.78;1.25;;;20.70;99.90;;;;;;5016226;28;20524;-78
2022/06/24 08:26:09;;;;;;;2.55;1.25;;;21.10;99.90;;;;;;5016040;28;20168;-79
2022/06/24 08:28:35;;;;;;;2.40;1.23;;;21.20;99.90;;;;;;5016749;28;20191;-79
2022/06/24 08:31:01;;;;;;;1.20;0.68;;;21.00;99.90;;;;;;5016224;28;20179;-79
2022/06/24 08:33:27;;;;;;;1.23;0.85;;;21.10;99.90;;;;;;5014148;28;20204;-79
2022/06/24 08:35:53;;;;;;;1.42;0.50;;;21.10;99.90;;;;;;5015558;28;20180;-78
2022/06/24 08:38:19;;;;;;;1.60;0.80;;;20.60;99.90;;;;;;5015190;28;20185;-79
2022/06/24 08:40:49;;;;;;;0.80;0.65;;;20.50;99.90;;;;;;5018788;28;20168;-77
2022/06/24 08:43:15;;;;;;;2.50;0.57;;;20.60;99.90;;;;;;5015386;28;20181;-77
2022/06/24 08:45:41;;;;;;;1.73;0.70;;;20.70;99.90;;;;;;5014973;28;20157;-77
2022/06/24 08:48:08;;;;;;;0.40;0.40;;;20.80;99.90;;;;;;5015695;28;20196;-79
2022/06/24 08:50:34;;;;;;;0.63;0.40;;;20.70;99.90;;;;;;5015745;28;20189;-80
2022/06/24 08:53:04;;;;;;;2.28;0.43;;;20.60;99.90;;;;;;5015199;28;20272;-79
2022/06/24 08:55:37;;;;;;;0.52;0.40;;;20.70;99.90;;;;;;5015852;28;20164;-79
2022/06/24 08:58:10;;;;;;;0.38;0.32;;;20.80;99.90;;;;;;5015274;28;20267;-79
2022/06/24 09:00:36;;;;;;;3.30;0.65;;;20.90;99.90;;;;;;5015152;28;20629;-80
2022/06/24 09:03:03;;;;;;;1.20;0.85;;;21.20;99.90;;;;;;5016944;28;20180;-81
2022/06/24 09:05:28;;;;;;;1.48;0.88;;;21.20;99.90;;;;;;4998054;28;20172;-78
2022/06/24 09:08:20;;;;;;;1.00;0.70;;;21.50;99.90;;;;;;5014047;28;20188;-79
2022/06/24 09:11:06;;;;;;;1.90;0.70;;;21.80;99.90;;;;;;5011847;28;20275;-79
2022/06/24 09:13:44;;;;;;;0.40;0.40;;;22.10;99.90;;;;;;5014582;28;20299;-81
2022/06/24 09:16:11;;;;;;;0.40;0.30;;;22.10;99.90;;;;;;4996236;28;20172;-79
2022/06/24 09:18:37;;;;;;;0.22;0.22;;;22.00;99.90;;;;;;5021715;28;20264;-80
2022/06/24 09:21:02;;;;;;;0.40;0.40;;;21.80;99.90;;;;;;4996889;28;20164;-81
2022/06/24 09:23:28;;;;;;;1.35;0.50;;;21.70;99.90;;;;;;4999904;28;20634;-81
2022/06/24 09:26:01;;;;;;;2.45;0.60;;;21.70;99.90;;;;;;5014228;28;20185;-81
2022/06/24 09:28:31;;;;;;;3.10;0.90;;;21.80;99.90;;;;;;4996680;28;20287;-81
2022/06/24 09:31:05;;;;;;;2.63;0.60;;;21.70;99.90;;;;;;5014516;28;20179;-83
2022/06/24 09:33:39;;;;;;;0.50;0.50;;;21.70;99.90;;;;;;4996782;28;20239;-83
2022/06/24 09:36:08;;;;;;;0.60;0.60;;;21.80;99.90;;;;;;4996664;28;20248;-83
2022/06/24 09:38:54;;;;;;;1.48;1.00;;;22.10;99.90;;;;;;5014525;28;20196;-81
2022/06/24 09:41:20;;;;;;;3.00;2.70;;;22.30;99.90;;;;;;5014771;28;20173;-81
2022/06/24 09:43:46;;;;;;;3.17;2.55;;;22.30;99.90;;;;;;5013611;28;20187;-82
2022/06/24 09:46:20;;;;;;;7.45;1.83;;;22.50;99.90;;;;;;5013520;28;20198;-82
2022/06/24 09:48:46;;;;;;;1.55;0.90;;;22.90;99.90;;;;;;5013936;28;20196;-81
2022/06/24 09:51:13;;;;;;;1.85;0.60;;;23.00;99.90;;;;;;5028063;28;20628;-81
2022/06/24 09:53:42;;;;;;;1.00;0.90;;;23.10;99.90;;;;;;5015835;28;20608;-80
2022/06/24 09:56:09;;;;;;;6.28;1.45;;;23.30;99.90;;;;;;5033440;28;20171;-81
2022/06/24 09:58:38;;;;;;;7.07;1.30;;;23.90;99.90;;;;;;5033925;28;20227;-82
2022/06/24 10:01:04;;;;;;;1.23;0.80;;;24.20;99.90;;;;;;5016333;28;20164;-82
2022/06/24 10:03:30;;;;;;;7.00;0.80;;;24.20;99.90;;;;;;5034552;28;20207;-82
2022/06/24 10:06:03;;;;;;;0.95;0.50;;;24.40;99.90;;;;;;5033676;28;20200;-82
2022/06/24 10:08:32;;;;;;;0.75;0.70;;;24.50;99.90;;;;;;5034214;28;20555;-83
2022/06/24 10:10:59;;;;;;;1.05;0.82;;;24.10;99.90;;;;;;5017116;28;20622;-82
2022/06/24 10:13:31;;;;;;;3.47;0.68;;;24.40;99.90;;;;;;5016166;28;20204;-82
2022/06/24 10:15:59;;;;;;;5.30;0.73;;;24.20;99.90;;;;;;5016374;28;20172;-83
2022/06/24 10:18:32;;;;;;;0.88;0.63;;;23.90;99.90;;;;;;5035181;28;20188;-83
2022/06/24 10:21:01;;;;;;;2.70;0.90;;;24.70;99.90;;;;;;5038838;28;20247;-82
2022/06/24 10:23:48;;;;;;;1.40;1.30;;;24.50;99.90;;;;;;5039532;28;20174;-83
2022/06/24 10:26:29;;;;;;;1.55;1.10;;;24.40;99.90;;;;;;5020686;28;20210;-82
2022/06/24 10:29:03;;;;;;;1.60;1.00;;;24.50;99.90;;;;;;5021119;28;20192;-82
2022/06/24 10:31:56;;;;;;;0.80;0.80;;;24.70;99.90;;;;;;5021773;28;20258;-81
2022/06/24 10:34:30;;;;;;;1.13;1.02;;;25.00;99.90;;;;;;5037749;28;20183;-82
2022/06/24 10:37:17;;;;;;;1.13;0.90;;;24.20;99.90;;;;;;5040623;28;20262;-81
2022/06/24 10:39:55;;;;;;;1.77;1.38;;;24.40;99.90;;;;;;5040851;28;20156;-82
2022/06/24 10:42:22;;;;;;;3.08;1.13;;;24.40;99.90;;;;;;5041020;28;20160;-82
2022/06/24 10:44:55;;;;;;;2.83;1.23;;;24.30;99.90;;;;;;5051631;28;20167;-81
2022/06/24 10:47:27;;;;;;;1.55;1.15;;;24.70;99.90;;;;;;5045912;28;20235;-83
2022/06/24 10:52:38;;;;;;;7.28;1.00;;;24.80;99.90;;;;;;5036500;28;20207;-82
2022/06/24 10:55:28;;;;;;;1.42;1.33;;;24.80;99.90;;;;;;5044681;28;20186;-84
2022/06/24 10:57:57;;;;;;;2.63;1.20;;;24.50;99.90;;;;;;5017664;28;20714;-83
2022/06/24 11:00:28;;;;;;;1.85;1.20;;;24.20;99.90;;;;;;5034859;28;20250;-83
2022/06/24 11:02:58;;;;;;;3.53;2.08;;;24.10;99.90;;;;;;5017458;28;20188;-83
2022/06/24 11:05:34;;;;;;;1.38;1.27;;;23.90;99.90;;;;;;5017373;28;20199;-83
2022/06/24 11:08:00;;;;;;;2.72;1.10;;;23.90;99.90;;;;;;5016127;28;20231;-84
2022/06/24 11:10:30;;;;;;;1.80;1.27;;;24.10;99.90;;;;;;5015852;28;20164;-84
2022/06/24 11:13:00;;;;;;;1.95;1.85;;;24.20;99.90;;;;;;5033703;28;20199;-84
2022/06/24 11:15:51;;;;;;;2.85;2.42;;;24.50;99.90;;;;;;5016270;28;20508;-83
2022/06/24 11:18:24;;;;;;;4.28;2.53;;;24.90;99.90;;;;;;5015746;28;20280;-84
2022/06/24 11:20:54;;;;;;;1.40;0.95;;;24.90;99.90;;;;;;5015879;28;20262;-84
2022/06/24 11:23:21;;;;;;;1.35;1.25;;;25.20;99.90;;;;;;5016159;28;20525;-84
2022/06/24 11:25:51;;;;;;;1.30;1.10;;;24.80;99.90;;;;;;5033538;28;20164;-85
2022/06/24 11:28:18;;;;;;;1.02;1.00;;;24.70;99.90;;;;;;5015157;28;20199;-84
2022/06/24 11:30:44;;;;;;;0.98;0.98;;;24.60;99.90;;;;;;5015426;28;20211;-85
2022/06/24 11:33:09;;;;;;;1.13;1.00;;;24.50;99.90;;;;;;5033043;28;20674;-83
2022/06/24 11:35:35;;;;;;;0.90;0.90;;;24.70;99.90;;;;;;5015332;28;20171;-84
2022/06/24 11:38:05;;;;;;;1.58;1.10;;;25.10;99.90;;;;;;5014749;28;20664;-83
2022/06/24 11:40:32;;;;;;;1.35;1.25;;;25.50;99.90;;;;;;5033169;28;20168;-82
2022/06/24 11:43:13;;;;;;;0.80;0.80;;;25.60;99.90;;;;;;5015394;28;20225;-83
2022/06/24 11:45:48;;;;;;;2.83;1.00;;;25.50;99.90;;;;;;5014788;28;20249;-83
2022/06/24 11:48:22;;;;;;;1.15;0.82;;;25.70;99.90;;;;;;5015155;28;20194;-83
2022/06/24 11:50:48;;;;;;;10.82;0.82;;;25.90;99.90;;;;;;5032814;28;20168;-83
2022/06/24 11:53:15;;;;;;;1.05;0.90;;;26.30;99.90;;;;;;5015079;28;20218;-84
2022/06/24 11:55:42;;;;;;;2.78;0.95;;;26.40;99.90;;;;;;5015525;28;20172;-84
2022/06/24 11:58:11;;;;;;;3.58;2.05;;;26.00;99.90;;;;;;5014998;28;20212;-84
2022/06/24 12:00:38;;;;;;;9.63;1.27;;;26.30;99.90;;;;;;5015301;28;20164;-85
2022/06/24 12:03:07;;;;;;;1.20;0.80;;;26.50;99.90;;;;;;5033099;28;20274;-87
2022/06/24 12:05:36;;;;;;;1.65;0.90;;;26.60;99.90;;;;;;5015592;28;20164;-84
2022/06/24 12:08:02;;;;;;;0.68;0.68;;;26.70;99.90;;;;;;5015326;28;20202;-84
2022/06/24 12:10:28;;;;;;;1.42;0.75;;;27.00;99.90;;;;;;5015158;28;20171;-85
2022/06/24 12:12:56;;;;;;;3.40;0.80;;;27.00;99.90;;;;;;5032705;28;20562;-84
2022/06/24 12:15:33;;;;;;;2.65;1.00;;;26.70;99.90;;;;;;5015151;28;20196;-85
2022/06/24 12:17:59;;;;;;;0.80;0.80;;;26.10;99.90;;;;;;5015231;28;20227;-85
2022/06/24 12:20:26;;;;;;;0.82;0.82;;;25.80;99.90;;;;;;5036916;28;20196;-85
2022/06/24 12:23:18;;;;;;;3.47;0.85;;;25.80;99.90;;;;;;5018786;28;20197;-85
2022/06/24 12:25:51;;;;;;;1.08;0.70;;;25.80;99.90;;;;;;5018920;28;20210;-85
2022/06/24 12:28:18;;;;;;;2.17;0.85;;;26.00;99.90;;;;;;5018826;28;20211;-84
2022/06/24 12:30:54;;;;;;;2.00;0.90;;;26.50;99.90;;;;;;5036587;28;20180;-83
2022/06/24 12:33:20;;;;;;;1.25;1.10;;;26.40;99.90;;;;;;5025716;28;20207;-84
2022/06/24 12:36:41;;;;;;;3.63;1.27;;;26.50;99.90;;;;;;5041133;28;20227;-82
2022/06/24 12:39:09;;;;;;;0.70;0.70;;;26.80;99.90;;;;;;5043438;28;20206;-81
2022/06/24 12:42:14;;;;;;;4.65;1.08;;;26.90;99.90;;;;;;5021299;28;20164;-82
2022/06/24 12:44:44;;;;;;;2.80;1.20;;;26.60;99.90;;;;;;5038895;28;20225;-81
2022/06/24 12:52:46;;;;;;;12.40;1.25;;;26.70;99.90;;;;;;5036371;28;20223;-81
2022/06/24 12:55:14;;;;;;;3.65;1.10;;;26.70;99.90;;;;;;5018383;28;20163;-81
2022/06/24 12:57:40;;;;;;;0.85;0.85;;;26.90;99.90;;;;;;5046558;28;20187;-81
2022/06/24 13:00:09;;;;;;;2.30;0.90;;;26.40;99.90;;;;;;5052781;28;20168;-81
2022/06/24 13:02:36;;;;;;;1.75;1.38;;;26.60;99.90;;;;;;5058861;28;20191;-82
2022/06/24 13:05:03;;;;;;;1.92;1.67;;;27.00;99.90;;;;;;5018422;28;20646;-81